createdAt,value
2018-10-15T00:01:17.957Z,9.00
2018-10-15T00:03:46.600Z,8.93
2018-10-15T00:06:15.236Z,8.93
2018-10-15T00:08:43.853Z,9.00
2018-10-15T00:11:12.577Z,9.27
2018-10-15T00:13:41.214Z,9.87
2018-10-15T00:16:09.884Z,9.03
2018-10-15T00:18:38.557Z,9.73
2018-10-15T00:21:07.236Z,9.13
2018-10-15T00:23:35.958Z,10.33
2018-10-15T00:26:04.710Z,10.47
2018-10-15T00:28:33.348Z,10.33
2018-10-15T00:31:02.058Z,9.73
2018-10-15T00:33:30.711Z,9.80
2018-10-15T00:35:59.345Z,10.17
2018-10-15T00:38:28.028Z,9.80
2018-10-15T00:40:56.743Z,9.93
2018-10-15T00:43:25.523Z,9.90
2018-10-15T00:45:54.229Z,10.00
2018-10-15T00:48:22.875Z,10.00
2018-10-15T00:50:51.504Z,10.00
2018-10-15T00:53:20.154Z,9.23
2018-10-15T00:55:50.667Z,9.93
2018-10-15T00:58:19.424Z,10.37
2018-10-15T01:00:48.134Z,10.50
2018-10-15T01:03:16.808Z,10.40
2018-10-15T01:05:45.497Z,9.73
2018-10-15T01:08:14.127Z,9.73
2018-10-15T01:10:42.783Z,9.90
2018-10-15T01:13:11.462Z,9.93
2018-10-15T01:15:40.151Z,10.00
2018-10-15T01:18:08.806Z,10.70
2018-10-15T01:20:37.508Z,10.50
2018-10-15T01:23:06.225Z,10.70
2018-10-15T01:25:35.000Z,9.57
2018-10-15T01:28:03.660Z,10.17
2018-10-15T01:30:32.326Z,10.23
2018-10-15T01:33:00.992Z,10.43
2018-10-15T01:35:29.734Z,11.53
2018-10-15T01:37:58.702Z,10.77
2018-10-15T01:40:27.336Z,10.53
2018-10-15T01:42:56.051Z,10.10
2018-10-15T01:45:24.773Z,10.87
2018-10-15T01:47:53.603Z,12.17
2018-10-15T01:50:22.275Z,11.07
2018-10-15T01:52:51.249Z,11.10
2018-10-15T01:55:19.891Z,10.43
2018-10-15T01:57:48.561Z,10.13
2018-10-15T02:00:17.387Z,9.90
2018-10-15T02:02:46.098Z,9.73
2018-10-15T02:05:14.745Z,10.67
2018-10-15T02:07:43.409Z,10.10
2018-10-15T02:10:12.064Z,10.70
2018-10-15T02:12:40.948Z,11.43
2018-10-15T02:15:09.687Z,12.50
2018-10-15T02:17:38.417Z,12.80
2018-10-15T02:20:08.628Z,11.13
2018-10-15T02:22:37.533Z,11.10
2018-10-15T02:25:06.393Z,11.83
2018-10-15T02:27:35.090Z,11.43
2018-10-15T02:30:11.821Z,11.33
2018-10-15T02:32:41.135Z,11.40
2018-10-15T02:35:10.235Z,11.77
2018-10-15T02:37:40.048Z,11.07
2018-10-15T02:40:08.875Z,11.90
2018-10-15T02:42:37.707Z,12.73
2018-10-15T02:45:07.896Z,13.77
2018-10-15T02:47:36.780Z,15.50
2018-10-15T02:50:06.041Z,14.53
2018-10-15T02:52:34.689Z,14.17
2018-10-15T02:55:03.314Z,15.03
2018-10-15T02:57:32.008Z,14.87
2018-10-15T03:00:01.445Z,13.87
2018-10-15T03:02:30.401Z,14.87
2018-10-15T03:04:59.039Z,14.77
2018-10-15T03:07:28.642Z,13.63
2018-10-15T03:09:58.382Z,14.80
2018-10-15T03:12:27.065Z,15.33
2018-10-15T03:14:55.742Z,15.40
2018-10-15T03:17:24.442Z,15.77
2018-10-15T03:19:53.141Z,15.97
2018-10-15T03:22:21.826Z,14.53
2018-10-15T03:24:50.537Z,15.10
2018-10-15T03:27:19.302Z,14.87
2018-10-15T03:29:47.964Z,14.67
2018-10-15T03:32:16.634Z,15.93
2018-10-15T03:34:45.682Z,15.40
2018-10-15T03:37:14.477Z,11.83
2018-10-15T03:39:43.431Z,12.47
2018-10-15T03:42:12.363Z,12.20
2018-10-15T03:44:41.001Z,11.57
2018-10-15T03:47:09.686Z,11.20
2018-10-15T03:49:38.329Z,12.60
2018-10-15T03:52:07.114Z,13.17
2018-10-15T03:54:35.804Z,12.03
2018-10-15T03:57:05.669Z,9.63
2018-10-15T03:59:34.438Z,9.20
2018-10-15T04:02:03.417Z,10.03
2018-10-15T04:04:32.262Z,10.00
2018-10-15T04:07:00.880Z,10.47
2018-10-15T04:09:29.879Z,10.50
2018-10-15T04:11:58.533Z,10.83
2018-10-15T04:14:27.521Z,10.97
2018-10-15T04:16:56.191Z,11.90
2018-10-15T04:19:24.957Z,11.93
2018-10-15T04:21:53.712Z,11.47
2018-10-15T04:24:22.417Z,10.77
2018-10-15T04:26:51.093Z,10.20
2018-10-15T04:29:19.742Z,9.50
2018-10-15T04:31:48.450Z,9.27
2018-10-15T04:34:17.153Z,8.67
2018-10-15T04:36:45.844Z,9.50
2018-10-15T04:39:14.548Z,11.37
2018-10-15T04:41:44.322Z,9.90
2018-10-15T04:44:13.300Z,11.60
2018-10-15T04:46:42.270Z,11.53
2018-10-15T04:49:12.359Z,13.00
2018-10-15T04:51:41.026Z,12.20
2018-10-15T04:54:09.729Z,12.17
2018-10-15T04:56:38.462Z,14.10
2018-10-15T04:59:07.199Z,13.27
2018-10-15T05:01:35.928Z,14.57
2018-10-15T05:04:04.712Z,13.97
2018-10-15T05:06:33.552Z,13.80
2018-10-15T05:09:02.273Z,14.27
2018-10-15T05:11:31.017Z,13.87
2018-10-15T05:13:59.797Z,15.83
2018-10-15T05:16:28.689Z,15.03
2018-10-15T05:18:57.636Z,15.83
2018-10-15T05:21:26.475Z,18.37
2018-10-15T05:23:55.069Z,16.73
2018-10-15T05:26:24.067Z,18.00
2018-10-15T05:28:52.661Z,16.13
2018-10-15T05:31:21.359Z,15.13
2018-10-15T05:33:51.173Z,15.20
2018-10-15T05:36:19.934Z,14.10
2018-10-15T05:38:48.850Z,16.40
2018-10-15T05:41:17.583Z,17.07
2018-10-15T05:43:46.296Z,15.50
2018-10-15T05:46:15.232Z,15.80
2018-10-15T05:48:44.233Z,14.67
2018-10-15T05:51:12.993Z,16.23
2018-10-15T05:53:41.742Z,16.80
2018-10-15T05:56:10.713Z,17.53
2018-10-15T05:58:39.417Z,16.70
2018-10-15T06:01:08.430Z,19.30
2018-10-15T06:03:37.072Z,20.60
2018-10-15T06:06:06.007Z,20.00
2018-10-15T06:08:34.688Z,19.90
2018-10-15T06:11:03.435Z,17.40
2018-10-15T06:13:32.371Z,19.13
2018-10-15T06:16:01.220Z,19.87
2018-10-15T06:18:31.114Z,16.70
2018-10-15T06:20:59.828Z,16.00
2018-10-15T06:23:28.548Z,13.13
2018-10-15T06:25:57.298Z,13.13
2018-10-15T06:28:26.304Z,14.13
2018-10-15T06:30:55.497Z,14.50
2018-10-15T06:33:24.315Z,12.33
2018-10-15T06:35:53.308Z,10.53
2018-10-15T06:38:22.282Z,10.63
2018-10-15T06:40:51.028Z,10.47
2018-10-15T06:43:19.911Z,11.13
2018-10-15T06:45:48.647Z,10.37
2018-10-15T06:48:17.353Z,10.03
2018-10-15T06:50:46.629Z,9.53
2018-10-15T06:53:15.376Z,10.27
2018-10-15T06:55:44.328Z,9.03
2018-10-15T06:58:13.288Z,9.53
2018-10-15T07:00:42.316Z,10.00
2018-10-15T07:03:11.603Z,9.07
2018-10-15T07:05:40.320Z,9.00
2018-10-15T07:08:09.244Z,9.53
2018-10-15T07:10:38.478Z,8.67
2018-10-15T07:13:07.279Z,9.97
2018-10-15T07:15:36.201Z,9.50
2018-10-15T07:18:05.049Z,9.73
2018-10-15T07:20:34.050Z,8.67
2018-10-15T07:23:02.814Z,8.37
2018-10-15T07:25:33.130Z,7.83
2018-10-15T07:28:02.156Z,7.97
2018-10-15T07:30:32.420Z,8.57
2018-10-15T07:33:01.065Z,8.07
2018-10-15T07:35:29.891Z,7.40
2018-10-15T07:37:59.104Z,7.23
2018-10-15T07:40:28.295Z,6.93
2018-10-15T07:42:57.044Z,7.10
2018-10-15T07:45:26.318Z,6.50
2018-10-15T07:47:55.086Z,7.30
2018-10-15T07:50:23.776Z,7.43
2018-10-15T07:52:53.534Z,8.27
2018-10-15T07:55:22.409Z,7.37
2018-10-15T07:57:51.904Z,6.47
2018-10-15T08:00:24.365Z,6.50
2018-10-15T08:02:53.648Z,6.90
2018-10-15T08:05:22.963Z,6.30
2018-10-15T08:07:52.533Z,6.60
2018-10-15T08:10:21.723Z,7.15
2018-10-15T08:12:50.810Z,6.10
2018-10-15T08:15:21.215Z,6.60
2018-10-15T08:17:50.661Z,6.83
2018-10-15T08:20:20.546Z,7.42
2018-10-15T08:22:50.107Z,8.03
2018-10-15T08:25:19.183Z,7.80
2018-10-15T08:27:48.939Z,7.60
2018-10-15T08:30:19.198Z,8.30
2018-10-15T08:32:48.390Z,7.25
2018-10-15T08:35:17.301Z,7.10
2018-10-15T08:37:46.475Z,7.15
2018-10-15T08:40:17.492Z,7.70
2018-10-15T08:42:49.640Z,6.50
2018-10-15T08:45:22.562Z,6.30
2018-10-15T08:47:51.468Z,6.28
2018-10-15T08:50:20.582Z,5.83
2018-10-15T08:52:50.725Z,6.00
2018-10-15T08:55:19.976Z,5.83
2018-10-15T08:57:49.043Z,6.47
2018-10-15T09:00:21.205Z,6.22
2018-10-15T09:02:50.097Z,7.25
2018-10-15T09:05:18.822Z,6.35
2018-10-15T09:07:47.927Z,5.95
2018-10-15T09:10:18.094Z,6.17
2018-10-15T09:12:47.249Z,5.62
2018-10-15T09:15:19.860Z,5.20
2018-10-15T09:17:48.787Z,5.67
2018-10-15T09:20:17.809Z,5.20
2018-10-15T09:22:46.861Z,5.10
2018-10-15T09:25:17.737Z,5.08
2018-10-15T09:27:46.857Z,6.08
2018-10-15T09:30:18.185Z,4.62
2018-10-15T09:32:47.070Z,5.17
2018-10-15T09:35:16.977Z,4.72
2018-10-15T09:37:46.010Z,4.78
2018-10-15T09:40:17.099Z,4.50
2018-10-15T09:42:46.505Z,5.30
2018-10-15T09:45:16.642Z,5.08
2018-10-15T09:47:46.810Z,5.25
2018-10-15T09:50:15.511Z,4.28
2018-10-15T09:52:44.625Z,8.43
2018-10-15T09:55:14.446Z,5.17
2018-10-15T09:57:43.423Z,5.35
2018-10-15T10:00:18.395Z,4.67
2018-10-15T10:02:48.864Z,5.00
2018-10-15T10:05:17.995Z,4.70
2018-10-15T10:07:47.172Z,3.87
2018-10-15T10:10:16.135Z,4.30
2018-10-15T10:12:44.845Z,5.55
2018-10-15T10:15:14.450Z,4.58
2018-10-15T10:17:44.554Z,4.35
2018-10-15T10:20:13.928Z,4.90
2018-10-15T10:22:42.636Z,4.58
2018-10-15T10:25:12.474Z,6.83
2018-10-15T10:27:41.437Z,5.70
2018-10-15T10:30:11.401Z,4.60
2018-10-15T10:32:40.115Z,4.60
2018-10-15T10:35:30.214Z,3.85
2018-10-15T10:37:59.075Z,4.35
2018-10-15T10:40:27.756Z,3.80
2018-10-15T10:42:56.964Z,3.75
2018-10-15T10:45:26.195Z,4.28
2018-10-15T10:47:55.017Z,5.75
2018-10-15T10:50:24.006Z,4.20
2018-10-15T10:52:52.647Z,3.52
2018-10-15T10:55:21.863Z,3.65
2018-10-15T10:57:50.624Z,3.83
2018-10-15T11:00:20.051Z,3.62
2018-10-15T11:02:49.215Z,3.58
2018-10-15T11:05:17.809Z,3.15
2018-10-15T11:07:46.472Z,3.62
2018-10-15T11:10:15.222Z,2.90
2018-10-15T11:12:44.218Z,3.12
2018-10-15T11:15:12.905Z,3.80
2018-10-15T11:17:41.892Z,3.08
2018-10-15T11:20:11.032Z,3.15
2018-10-15T11:22:39.775Z,3.20
2018-10-15T11:25:08.697Z,2.77
2018-10-15T11:27:37.801Z,3.10
2018-10-15T11:30:10.121Z,2.77
2018-10-15T11:32:39.137Z,3.22
2018-10-15T11:35:08.540Z,2.98
2018-10-15T11:37:37.881Z,3.20
2018-10-15T11:40:06.696Z,4.22
2018-10-15T11:42:35.656Z,3.22
2018-10-15T11:45:04.390Z,2.80
2018-10-15T11:47:33.025Z,3.83
2018-10-15T11:50:02.699Z,3.12
2018-10-15T11:52:31.365Z,2.95
2018-10-15T11:55:00.189Z,3.33
2018-10-15T11:57:28.844Z,3.35
2018-10-15T11:59:57.700Z,3.10
2018-10-15T12:02:26.432Z,3.00
2018-10-15T12:04:55.390Z,3.02
2018-10-15T12:07:24.161Z,3.10
2018-10-15T12:09:52.836Z,3.12
2018-10-15T12:12:21.990Z,3.87
2018-10-15T12:14:50.960Z,3.17
2018-10-15T12:17:19.792Z,3.60
2018-10-15T12:19:48.881Z,4.15
2018-10-15T12:22:17.590Z,3.95
2018-10-15T12:24:46.427Z,3.22
2018-10-15T12:27:15.161Z,4.00
2018-10-15T12:29:44.107Z,2.80
2018-10-15T12:32:13.030Z,3.35
2018-10-15T12:34:42.012Z,3.05
2018-10-15T12:37:11.279Z,3.20
2018-10-15T12:39:40.036Z,3.58
2018-10-15T12:42:09.161Z,3.20
2018-10-15T12:44:38.001Z,3.20
2018-10-15T12:47:06.911Z,3.55
2018-10-15T12:49:35.655Z,3.60
2018-10-15T12:52:04.630Z,3.87
2018-10-15T12:54:33.354Z,4.75
2018-10-15T12:57:02.692Z,2.87
2018-10-15T12:59:31.501Z,3.08
2018-10-15T13:02:00.788Z,3.72
2018-10-15T13:04:30.834Z,2.98
2018-10-15T13:07:00.007Z,2.90
2018-10-15T13:09:28.965Z,3.40
2018-10-15T13:11:57.729Z,2.98
2018-10-15T13:14:26.485Z,3.60
2018-10-15T13:16:55.506Z,3.10
2018-10-15T13:19:24.573Z,2.80
2018-10-15T13:21:53.705Z,2.97
2018-10-15T13:24:22.540Z,3.23
2018-10-15T13:26:51.563Z,3.30
2018-10-15T13:29:20.438Z,3.93
2018-10-15T13:31:49.074Z,3.40
2018-10-15T13:34:18.071Z,4.27
2018-10-15T13:36:47.245Z,3.60
2018-10-15T13:39:15.997Z,3.20
2018-10-15T13:41:44.825Z,3.30
2018-10-15T13:44:13.802Z,3.83
2018-10-15T13:46:42.524Z,3.53
2018-10-15T13:49:11.398Z,3.33
2018-10-15T13:51:40.452Z,4.13
2018-10-15T13:54:09.690Z,3.60
2018-10-15T13:56:38.671Z,3.60
2018-10-15T13:59:07.419Z,5.17
2018-10-15T14:01:36.139Z,5.40
2018-10-15T14:04:05.719Z,5.13
2018-10-15T14:06:35.516Z,6.43
2018-10-15T14:09:06.358Z,5.90
2018-10-15T14:11:35.123Z,7.13
2018-10-15T14:14:04.018Z,7.70
2018-10-15T14:16:32.763Z,7.90
2018-10-15T14:19:01.784Z,6.73
2018-10-15T14:21:36.926Z,7.23
2018-10-15T14:24:05.905Z,7.03
2018-10-15T14:26:34.581Z,10.47
2018-10-15T14:29:03.448Z,6.70
2018-10-15T14:31:32.124Z,6.27
2018-10-15T14:34:00.881Z,7.07
2018-10-15T14:36:30.117Z,6.87
2018-10-15T14:38:58.881Z,7.13
2018-10-15T14:41:28.593Z,6.83
2018-10-15T14:43:57.494Z,8.00
2018-10-15T14:46:26.760Z,7.70
2018-10-15T14:48:55.840Z,7.70
2018-10-15T14:51:25.244Z,7.13
2018-10-15T14:53:54.233Z,8.33
2018-10-15T14:56:22.909Z,8.80
2018-10-15T14:58:51.604Z,7.93
2018-10-15T15:01:20.515Z,8.60
2018-10-15T15:03:49.197Z,8.07
2018-10-15T15:06:18.176Z,7.87
2018-10-15T15:08:46.841Z,7.63
2018-10-15T15:12:25.933Z,6.87
2018-10-15T15:14:55.012Z,7.57
2018-10-15T15:17:23.668Z,7.33
2018-10-15T15:19:52.613Z,7.43
2018-10-15T15:22:21.296Z,7.73
2018-10-15T15:24:50.199Z,8.00
2018-10-15T15:27:22.094Z,7.60
2018-10-15T15:29:50.746Z,8.83
2018-10-15T15:32:19.493Z,8.03
2018-10-15T15:34:48.235Z,7.70
2018-10-15T15:37:18.084Z,8.87
2018-10-15T15:39:46.862Z,8.07
2018-10-15T15:42:15.836Z,8.87
2018-10-15T15:44:44.542Z,7.10
2018-10-15T15:47:13.449Z,7.90
2018-10-15T15:49:42.148Z,7.60
2018-10-15T15:52:10.814Z,8.27
2018-10-15T15:54:40.041Z,6.97
2018-10-15T15:57:08.825Z,7.40
2018-10-15T16:13:11.368Z,8.83
2018-10-15T16:15:40.320Z,8.67
2018-10-15T16:18:09.032Z,8.70
2018-10-15T16:20:37.923Z,9.73
2018-10-15T16:23:06.850Z,9.97
2018-10-15T16:25:35.485Z,9.23
2018-10-15T16:28:04.190Z,8.30
2018-10-15T16:30:32.878Z,7.97
2018-10-15T16:33:01.553Z,7.50
2018-10-15T16:35:30.495Z,7.87
2018-10-15T16:37:59.171Z,9.00
2018-10-15T16:40:27.868Z,9.50
2018-10-15T16:42:56.778Z,9.10
2018-10-15T16:45:26.126Z,10.07
2018-10-15T16:47:54.778Z,10.10
2018-10-15T16:50:23.442Z,11.27
2018-10-15T16:52:52.432Z,10.93
2018-10-15T16:55:21.066Z,12.57
2018-10-15T16:57:50.051Z,14.13
2018-10-15T17:00:19.030Z,18.53
2018-10-15T17:02:48.053Z,19.37
2018-10-15T17:05:17.981Z,18.60
2018-10-15T17:07:46.980Z,19.97
2018-10-15T17:10:16.087Z,19.63
2018-10-15T17:12:45.095Z,21.07
2018-10-15T17:15:15.205Z,19.57
2018-10-15T17:17:43.986Z,21.47
2018-10-15T17:20:13.169Z,18.10
2018-10-15T17:22:42.878Z,18.67
2018-10-15T17:25:12.415Z,16.87
2018-10-15T17:27:41.886Z,15.57
2018-10-15T17:30:12.197Z,14.63
2018-10-15T17:32:41.599Z,15.57
2018-10-15T17:35:10.396Z,14.77
2018-10-15T17:37:40.160Z,16.40
2018-10-15T17:40:11.114Z,15.53
2018-10-15T17:42:40.375Z,13.40
2018-10-15T17:45:14.469Z,13.37
2018-10-15T17:47:44.029Z,14.83
2018-10-15T17:50:12.868Z,11.23
2018-10-15T17:52:41.617Z,13.83
2018-10-15T17:55:12.087Z,13.60
2018-10-15T17:57:40.994Z,12.27
2018-10-15T18:00:20.941Z,13.80
2018-10-15T18:02:49.681Z,12.30
2018-10-15T18:05:18.393Z,12.70
2018-10-15T18:07:47.373Z,14.80
2018-10-15T18:10:16.054Z,16.03
2018-10-15T18:12:44.897Z,15.87
2018-10-15T18:15:13.927Z,15.40
2018-10-15T18:17:42.629Z,15.43
2018-10-15T18:20:11.316Z,13.23
2018-10-15T18:22:39.984Z,13.77
2018-10-15T18:25:09.594Z,14.53
2018-10-15T18:27:38.329Z,16.60
2018-10-15T18:30:12.992Z,16.50
2018-10-15T18:32:42.550Z,15.63
2018-10-15T18:35:11.348Z,15.43
2018-10-15T18:37:40.048Z,15.27
2018-10-15T18:40:10.085Z,13.57
2018-10-15T18:42:38.951Z,14.93
2018-10-15T18:45:08.329Z,14.97
2018-10-15T18:47:37.767Z,14.30
2018-10-15T18:50:08.865Z,14.97
2018-10-15T18:52:37.581Z,15.33
2018-10-15T18:55:06.302Z,14.47
2018-10-15T18:57:35.066Z,14.00
2018-10-15T19:00:08.757Z,15.87
2018-10-15T19:02:37.647Z,14.60
2018-10-15T19:05:06.612Z,13.20
2018-10-15T19:07:35.297Z,14.10
2018-10-15T19:10:04.108Z,14.77
2018-10-15T19:12:33.012Z,13.67
2018-10-15T19:15:01.731Z,13.67
2018-10-15T19:17:30.417Z,15.23
2018-10-15T19:19:59.146Z,17.77
2018-10-15T19:22:27.815Z,18.70
2018-10-15T19:24:56.479Z,21.10
2018-10-15T19:27:25.481Z,22.73
2018-10-15T19:29:54.207Z,24.57
2018-10-15T19:32:23.156Z,25.40
2018-10-15T19:34:51.999Z,27.03
2018-10-15T19:37:20.701Z,25.77
2018-10-15T19:39:49.435Z,25.80
2018-10-15T19:42:18.228Z,25.77
2018-10-15T19:44:46.910Z,23.20
2018-10-15T19:47:16.001Z,20.47
2018-10-15T19:49:45.212Z,21.57
2018-10-15T19:52:14.617Z,19.27
2018-10-15T19:54:44.134Z,17.07
2018-10-15T19:57:13.084Z,17.67
2018-10-15T19:59:42.076Z,15.20
2018-10-15T20:02:11.149Z,13.17
2018-10-15T20:04:39.953Z,14.67
2018-10-15T20:07:09.288Z,14.50
2018-10-15T20:09:38.152Z,18.10
2018-10-15T20:12:07.293Z,18.10
2018-10-15T20:14:36.037Z,18.60
2018-10-15T20:17:05.041Z,18.37
2018-10-15T20:19:34.043Z,15.33
2018-10-15T20:22:03.273Z,14.50
2018-10-15T20:24:32.272Z,13.60
2018-10-15T20:27:00.986Z,13.87
2018-10-15T20:29:29.662Z,13.77
2018-10-15T20:31:58.595Z,13.33
2018-10-15T20:34:27.357Z,13.67
2018-10-15T20:36:56.469Z,11.57
2018-10-15T20:39:25.146Z,11.90
2018-10-15T20:41:53.871Z,11.47
2018-10-15T20:44:22.958Z,10.23
2018-10-15T20:46:52.017Z,10.33
2018-10-15T20:49:20.689Z,10.23
2018-10-15T20:51:49.672Z,10.30
2018-10-15T20:54:18.391Z,11.20
2018-10-15T20:56:47.089Z,12.60
2018-10-15T20:59:16.736Z,11.47
2018-10-15T21:01:46.851Z,9.67
2018-10-15T21:04:15.543Z,9.83
2018-10-15T21:06:44.518Z,9.70
2018-10-15T21:09:13.499Z,10.33
2018-10-15T21:11:42.226Z,11.23
2018-10-15T21:14:11.216Z,10.17
2018-10-15T21:16:40.114Z,11.07
2018-10-15T21:19:09.342Z,11.40
2018-10-15T21:21:38.860Z,11.83
2018-10-15T21:24:07.926Z,11.53
2018-10-15T21:26:36.858Z,11.53
2018-10-15T21:29:05.742Z,11.53
2018-10-15T21:31:34.426Z,9.93
2018-10-15T21:34:03.168Z,9.80
2018-10-15T21:36:31.941Z,9.13
2018-10-15T21:39:00.570Z,9.03
2018-10-15T21:41:29.230Z,9.93
2018-10-15T21:43:58.798Z,10.67
2018-10-15T21:46:28.445Z,9.90
2018-10-15T21:48:57.432Z,10.90
2018-10-15T21:51:26.173Z,9.40
2018-10-15T21:53:55.004Z,9.73
2018-10-15T21:56:23.703Z,10.53
2018-10-15T21:58:52.652Z,10.03
2018-10-15T22:01:21.730Z,10.00
2018-10-15T22:03:50.584Z,10.13
2018-10-15T22:06:19.559Z,9.63
2018-10-15T22:08:48.336Z,10.30
2018-10-15T22:11:17.053Z,9.67
2018-10-15T22:13:46.024Z,9.60
2018-10-15T22:16:15.030Z,10.40
2018-10-15T22:18:43.963Z,10.13
2018-10-15T22:21:13.050Z,9.80
2018-10-15T22:23:42.045Z,8.83
2018-10-15T22:26:10.763Z,8.90
2018-10-15T22:28:39.396Z,9.20
2018-10-15T22:31:08.050Z,9.27
2018-10-15T22:33:37.960Z,8.27
2018-10-15T22:36:06.789Z,8.10
2018-10-15T22:38:35.494Z,8.50
2018-10-15T22:41:04.476Z,8.90
2018-10-15T22:43:33.241Z,8.30
2018-10-15T22:46:01.892Z,8.40
2018-10-15T22:48:30.697Z,8.43
2018-10-15T22:50:59.621Z,8.67
2018-10-15T22:53:28.301Z,11.10
2018-10-15T22:55:57.115Z,11.77
2018-10-15T22:58:26.107Z,10.23
2018-10-15T23:00:54.900Z,9.10
2018-10-15T23:03:23.601Z,9.80
2018-10-15T23:05:52.325Z,9.10
2018-10-15T23:08:21.267Z,8.53
2018-10-15T23:10:50.350Z,9.13
2018-10-15T23:13:19.019Z,9.93
2018-10-15T23:15:47.978Z,8.90
2018-10-15T23:18:16.673Z,8.57
2018-10-15T23:20:45.423Z,9.00
2018-10-15T23:23:14.128Z,9.57
2018-10-15T23:25:43.758Z,9.33
2018-10-15T23:28:12.425Z,8.57
2018-10-15T23:30:41.137Z,8.90
2018-10-15T23:33:11.400Z,8.47
2018-10-15T23:35:40.116Z,11.13
2018-10-15T23:38:08.785Z,10.40
2018-10-15T23:40:37.466Z,11.53
2018-10-15T23:43:08.768Z,11.57
2018-10-15T23:45:37.473Z,10.80
2018-10-15T23:48:06.172Z,12.07
2018-10-15T23:50:34.854Z,11.67
2018-10-15T23:53:03.897Z,10.57
2018-10-15T23:55:33.071Z,11.27
2018-10-15T23:58:01.954Z,9.20
